VOML/IXE METAR and TAF weather

Enter ICAO airport designator
Station Type Date Time Source
VOML METAR 2020/12/01 21:00 UTC NOAA

VOML 012100Z 07006KT 6000 FEW015 SCT080 24/19 Q1011 NOSIG


Station Type Date Time Source
VOML Decoded METAR 2020/12/01 21:00 UTC NOAA

Mangalore / Bajpe, India (VOML) 12-55N 074-53E 102M
Dec 01, 2020 - 04:00 PM EST / 2020.12.01 2100 UTC
Wind: from the ENE (070 degrees) at 7 MPH (6 KT):0
Visibility: 3 mile(s):0
Sky conditions: partly cloudy
Temperature: 75 F (24 C)
Dew Point: 66 F (19 C)
Relative Humidity: 73%
Pressure (altimeter): 29.85 in. Hg (1011 hPa)
ob: VOML 012100Z 07006KT 6000 FEW015 SCT080 24/19 Q1011 NOSIG
cycle: 21

Station Type Date Time Source
VOML TAF 2020/12/01 18:00 UTC NOAA

TAF VOML 011700Z 0118/0224 VRB04KT 6000 FEW015
BECMG 0122/0123 09005KT 4000 SCT012
TEMPO 0200/0203 3000 BR SCT006 SCT012
BECMG 0204/0206 27010KT 6000 SCT015
BECMG 0221/0222 09005KT 4000 BR SCT010

Example: see airport list